Detalii statie AFILIU TRANS MIZIL [00001982]

Toti senzorii

Date Temperatura solului [C]Precipitatii [mm]Voltaj baterie [mV]Leaf Wetness [Min]HC Air temperature [C]HC Relative humidity [%]Punctul de roua [C]
medieminmaxsumaultimatimpmedieminmaxmediemediemin
2019-04-19 19:00:00 0.2 7070 8.06 7.72 8.3 98.8 7.8 7.4
2019-04-19 20:00:00 0 7010 7.19 6.94 7.55 100 7.1 6.9
2019-04-19 21:00:00 0 6972 5.8 5.07 6.86 100 5.7 5
2019-04-19 22:00:00 0 6942 4.28 3.69 5.16 100 4.2 3.6
2019-04-19 23:00:00 0 6952 3.74 3.25 3.96 100 3.7 3.2
2019-04-20 00:00:00 0 6904 3.43 2.51 4.37 100 3.3 2.5
2019-04-20 01:00:00 0 6884 2.91 2.4 3.5 100 2.8 2.4
2019-04-20 02:00:00 0 6854 3.16 2.77 3.77 100 3.1 2.7
2019-04-20 03:00:00 0 6834 4.22 3.83 4.51 100 4.1 3.8
2019-04-20 04:00:00 0 6844 4.55 4.36 4.8 100 4.5 4.3
2019-04-20 05:00:00 0 6834 5.5 4.5 6.33 98.94 5.2 4.5
2019-04-20 06:00:00 0 6816 5.34 4.23 6.01 87.09 3.2 2.6
2019-04-20 07:00:00 0 6962 5.78 4.24 7.51 89.5 4 2.9
2019-04-20 08:00:00 0 7216 9.43 7.85 10.54 71.54 4.3 3.5
2019-04-20 09:00:00 0 7226 11.41 10.78 11.8 54 2.2 1.3
2019-04-20 10:00:00 0 7226 12.39 11.63 12.74 45.43 0.7 -0.2
2019-04-20 11:00:00 0 7226 12.78 11.88 14.06 44.1 0.7 -0.5
2019-04-20 12:00:00 0 7226 13.72 13.4 14.26 36.18 -1.1 -3.4
2019-04-20 13:00:00 0 7226 14.42 13.78 15.11 32.34 -2 -3.4
2019-04-20 14:00:00 0 7226 14.41 13.44 15.36 34.11 -1.3 -3
2019-04-20 15:00:00 0 7226 14.64 13.97 15.4 33.21 -1.5 -2.2
2019-04-20 16:00:00 0 7206 14.44 13.72 15.07 31.97 -2.2 -3
2019-04-20 17:00:00 0 7206 13.76 13.53 14.02 35 -1.5 -2.2
2019-04-20 18:00:00 0 7196 13.33 12.96 13.67 38.85 -0.5 -1.2
2019-04-20 19:00:00 0 7108 11.49 10.27 12.83 48.21 0.7 0
2019-04-20 20:00:00 0 7040 8.32 7.14 10.26 60.15 0.8 -0.1
2019-04-20 21:00:00 0 6992 6.31 4.85 8.25 72.55 1.5 0.4
2019-04-20 22:00:00 0 6992 4.04 2.34 5.45 83.54 1.3 -0.2
2019-04-20 23:00:00 0 6962 4.45 3.85 5.21 79.14 1 0.4
2019-04-21 00:00:00 0 6922 4.83 4.34 5.26 80.01 1.5 1.2
2019-04-21 01:00:00 0 6894 4.68 4.08 5.2 79.87 1.3 1
2019-04-21 02:00:00 0 6884 5.04 4.61 5.57 77.23 1.2 0.9
2019-04-21 03:00:00 0 6854 5.41 5.06 5.71 74.54 1.1 0.8
2019-04-21 04:00:00 0 6834 4.1 3.68 4.73 84.65 1.5 1.3
2019-04-21 05:00:00 0 6844 3.26 3.03 3.6 94.83 2.4 2
2019-04-21 06:00:00 0 6844 3.57 3.24 3.78 95.11 2.7 2.6
2019-04-21 07:00:00 0 6982 4.3 3.72 5.06 93.04 3.1 2.8
2019-04-21 08:00:00 0 7216 6.73 5.39 8.32 80.15 3.3 3
2019-04-21 09:00:00 0 7226 10 8.66 11.37 63.74 3.2 2.9
2019-04-21 10:00:00 0 7226 11.99 11.24 12.96 53.77 2.7 1.5
2019-04-21 11:00:00 0 7226 13.66 12.78 14.58 47.23 2.4 1.3
2019-04-21 12:00:00 0 7216 15.54 14.64 16.3 42.64 2.6 1.6
2019-04-21 13:00:00 0 7216 16.71 15.88 17.51 34.15 0.6 -0.9
2019-04-21 14:00:00 0 7226 17.37 16.91 17.9 33.33 0.8 -0.7
2019-04-21 15:00:00 0 7216 17.23 16.9 17.53 31.72 0 -0.1
2019-04-21 16:00:00 0 7216 17.34 16.93 17.82 32.03 0.2 -0.5
2019-04-21 17:00:00 0 7196 16.75 16.47 16.93 33.57 0.4 0
2019-04-21 18:00:00 0 7138 16.16 15.66 16.53 36.2 0.9 -0.2